Time;durP1;ratioP1;P1;durP2;ratioP2;P2;SDS_P1;SDS_P2;PMS_P1;PMS_P2;Temp;Humidity;BMP_temperature;BMP_pressure;BME280_temperature;BME280_humidity;BME280_pressure;Samples;Min_cycle;Max_cycle;Signal;HPM_P1;HPM_P2
2022/05/23 00:00:05;;;;;;;3.47;1.77;;;13.60;99.90;;;;;;5108154;27;20634;-63
2022/05/23 00:02:34;;;;;;;3.23;2.20;;;13.60;99.90;;;;;;5108108;27;20901;-64
2022/05/23 00:05:05;;;;;;;3.77;2.10;;;13.50;99.90;;;;;;5110641;27;20294;-64
2022/05/23 00:07:37;;;;;;;5.40;2.00;;;13.50;99.90;;;;;;5107807;27;20295;-64
2022/05/23 00:10:10;;;;;;;4.53;2.13;;;13.50;99.90;;;;;;5107670;27;20616;-64
2022/05/23 00:12:39;;;;;;;4.77;1.90;;;13.50;99.90;;;;;;5109772;27;20623;-64
2022/05/23 00:15:11;;;;;;;3.90;2.00;;;13.50;99.90;;;;;;5108878;27;20241;-64
2022/05/23 00:17:39;;;;;;;5.97;2.53;;;13.50;99.90;;;;;;5113960;27;20283;-63
2022/05/23 00:20:11;;;;;;;5.93;2.13;;;13.50;99.90;;;;;;5107956;27;20795;-64
2022/05/23 00:22:39;;;;;;;6.80;2.13;;;13.50;99.90;;;;;;5109476;27;20709;-63
2022/05/23 00:25:09;;;;;;;4.47;2.10;;;13.40;99.90;;;;;;5111828;27;20240;-64
2022/05/23 00:27:40;;;;;;;4.73;2.20;;;13.40;99.90;;;;;;5108657;27;20320;-63
2022/05/23 00:30:22;;;;;;;3.13;2.00;;;13.40;99.90;;;;;;5108762;27;20251;-63
2022/05/23 00:35:36;;;;;;;5.27;1.70;;;13.40;99.90;;;;;;5106524;28;20251;-64
2022/05/23 00:38:05;;;;;;;4.27;2.07;;;13.40;99.90;;;;;;5094956;28;20234;-62
2022/05/23 00:40:40;;;;;;;6.43;2.57;;;13.50;99.90;;;;;;5108476;28;20361;-64
2022/05/23 00:43:14;;;;;;;3.87;1.90;;;13.50;99.90;;;;;;5106430;28;20240;-64
2022/05/23 00:45:49;;;;;;;2.97;2.00;;;13.50;99.90;;;;;;5109120;28;20634;-63
2022/05/23 00:48:20;;;;;;;4.90;2.27;;;13.40;99.90;;;;;;5107541;28;20237;-64
2022/05/23 00:50:51;;;;;;;4.23;1.73;;;13.40;99.90;;;;;;5108460;28;20242;-64
2022/05/23 00:53:27;;;;;;;3.93;2.17;;;13.50;99.90;;;;;;5092037;28;20274;-64
2022/05/23 00:55:56;;;;;;;3.60;1.83;;;13.50;99.90;;;;;;5107294;28;20318;-63
2022/05/23 00:58:29;;;;;;;3.17;2.00;;;13.60;99.90;;;;;;5107371;28;20240;-63
2022/05/23 01:01:04;;;;;;;4.07;1.97;;;13.50;99.90;;;;;;5100206;28;20320;-64
2022/05/23 01:03:33;;;;;;;4.07;2.10;;;13.50;99.90;;;;;;5091692;28;20240;-64
2022/05/23 01:06:01;;;;;;;4.83;2.03;;;13.60;99.90;;;;;;5105954;28;20913;-64
2022/05/23 01:08:29;;;;;;;4.57;2.10;;;13.50;99.90;;;;;;5107600;28;20700;-64
2022/05/23 01:10:57;;;;;;;4.77;2.10;;;13.40;99.90;;;;;;5106803;28;20279;-64
2022/05/23 01:13:26;;;;;;;3.00;2.30;;;13.50;99.90;;;;;;5106227;28;20237;-63
2022/05/23 01:15:54;;;;;;;5.10;2.40;;;13.50;99.90;;;;;;5093185;28;20308;-64
2022/05/23 01:18:27;;;;;;;2.87;1.70;;;13.60;99.90;;;;;;5094944;28;20330;-64
2022/05/23 01:20:59;;;;;;;3.83;2.10;;;13.70;99.90;;;;;;5096095;28;20240;-63
2022/05/23 01:23:36;;;;;;;2.87;1.80;;;13.70;99.90;;;;;;5090417;28;20252;-64
2022/05/23 01:26:20;;;;;;;4.80;2.33;;;13.80;99.90;;;;;;5096431;28;20771;-64
2022/05/23 01:28:53;;;;;;;3.13;1.63;;;13.70;99.90;;;;;;5093785;28;20230;-64
2022/05/23 01:31:47;;;;;;;4.33;1.90;;;13.70;99.90;;;;;;5048335;27;1311452;-64
2022/05/23 01:34:21;;;;;;;6.30;1.97;;;13.70;99.90;;;;;;5093805;28;20240;-64
2022/05/23 01:37:01;;;;;;;4.13;1.93;;;13.80;99.90;;;;;;5096041;27;20233;-64
2022/05/23 01:39:36;;;;;;;5.40;2.00;;;13.70;99.90;;;;;;5109113;27;20317;-63
2022/05/23 01:42:07;;;;;;;3.97;1.80;;;13.70;99.90;;;;;;5093753;27;20241;-63
2022/05/23 01:44:36;;;;;;;3.83;2.30;;;13.70;99.90;;;;;;5092252;27;20251;-63
2022/05/23 01:47:20;;;;;;;4.87;2.17;;;13.70;99.90;;;;;;5093944;27;20724;-63
2022/05/23 01:50:00;;;;;;;3.00;2.13;;;13.70;99.90;;;;;;5094423;27;20245;-63
2022/05/23 01:52:43;;;;;;;4.30;2.13;;;13.60;99.90;;;;;;5094121;28;20706;-64
2022/05/23 01:55:23;;;;;;;4.10;1.90;;;13.60;99.90;;;;;;5092415;27;20261;-64
2022/05/23 01:58:03;;;;;;;5.13;2.40;;;13.50;99.90;;;;;;5096221;27;20244;-63
2022/05/23 02:03:21;;;;;;;2.70;1.80;;;13.50;99.90;;;;;;5091530;28;20779;-63
2022/05/23 02:05:54;;;;;;;3.60;2.00;;;13.70;99.90;;;;;;5094190;28;20224;-64
2022/05/23 02:08:22;;;;;;;5.37;2.03;;;13.60;99.90;;;;;;5092610;28;20777;-64
2022/05/23 02:10:53;;;;;;;3.73;2.00;;;13.70;99.90;;;;;;5092405;28;20361;-64
2022/05/23 02:13:32;;;;;;;3.83;2.03;;;13.60;99.90;;;;;;5092596;28;20226;-64
2022/05/23 02:16:00;;;;;;;4.60;2.27;;;13.60;99.90;;;;;;5106042;28;21572;-64
2022/05/23 02:18:39;;;;;;;4.87;2.03;;;13.50;99.90;;;;;;5095079;28;20229;-64
2022/05/23 02:21:08;;;;;;;4.03;2.20;;;13.50;99.90;;;;;;5104719;28;20245;-64
2022/05/23 02:23:36;;;;;;;2.63;1.83;;;13.50;99.90;;;;;;5093966;28;20724;-63
2022/05/23 02:26:08;;;;;;;3.87;2.17;;;13.40;99.90;;;;;;5096672;28;20738;-64
2022/05/23 02:29:05;;;;;;;5.77;2.17;;;13.40;99.90;;;;;;5100420;28;20241;-64
2022/05/23 02:31:34;;;;;;;5.50;1.90;;;13.40;99.90;;;;;;5092588;28;20240;-63
2022/05/23 02:34:10;;;;;;;3.50;1.80;;;13.40;99.90;;;;;;5092853;28;20595;-63
2022/05/23 02:36:46;;;;;;;4.60;1.80;;;13.50;99.90;;;;;;5094418;28;20791;-63
2022/05/23 02:39:16;;;;;;;4.83;1.90;;;13.50;99.90;;;;;;5090727;28;20288;-64
2022/05/23 02:41:50;;;;;;;4.33;1.93;;;13.40;99.90;;;;;;5091060;28;20240;-64
2022/05/23 02:44:22;;;;;;;3.57;1.80;;;13.50;99.90;;;;;;5093984;28;20247;-64
2022/05/23 02:46:50;;;;;;;3.77;1.90;;;13.50;99.90;;;;;;5094425;28;20226;-64
2022/05/23 02:49:24;;;;;;;3.00;2.17;;;13.50;99.90;;;;;;5092424;28;20238;-64
2022/05/23 02:51:54;;;;;;;2.50;1.97;;;13.50;99.90;;;;;;5092822;28;20595;-64
2022/05/23 02:54:27;;;;;;;3.13;2.03;;;13.30;99.90;;;;;;5093398;28;20249;-64
2022/05/23 02:57:00;;;;;;;4.23;1.90;;;13.30;99.90;;;;;;5114205;28;20320;-64
2022/05/23 02:59:30;;;;;;;4.50;2.00;;;13.20;99.90;;;;;;5094790;28;20573;-64
2022/05/23 03:04:54;;;;;;;4.37;2.30;;;13.20;99.90;;;;;;5092913;28;20288;-64
2022/05/23 03:07:22;;;;;;;5.40;1.90;;;13.10;99.90;;;;;;5092420;28;20246;-64
2022/05/23 03:10:00;;;;;;;3.87;2.13;;;13.20;99.90;;;;;;5094142;28;20237;-64
2022/05/23 03:12:29;;;;;;;4.07;2.20;;;13.10;99.90;;;;;;5106196;28;20236;-63
2022/05/23 03:15:00;;;;;;;3.77;1.97;;;13.10;99.90;;;;;;5094826;28;20241;-64
2022/05/23 03:17:28;;;;;;;2.93;2.17;;;13.10;99.90;;;;;;5096208;27;20241;-64
2022/05/23 03:19:56;;;;;;;6.80;2.13;;;13.10;99.90;;;;;;5098742;27;20244;-63
2022/05/23 03:28:01;;;;;;;1.80;1.70;;;13.10;99.90;;;;;;5098540;27;20245;-63
2022/05/23 03:30:33;;;;;;;2.67;2.07;;;13.20;99.90;;;;;;5093374;27;20243;-63
2022/05/23 03:33:02;;;;;;;5.20;2.13;;;13.30;99.90;;;;;;5093677;27;20240;-64
2022/05/23 03:35:32;;;;;;;2.03;1.70;;;13.20;99.90;;;;;;5097059;27;20251;-63
2022/05/23 03:38:01;;;;;;;5.13;1.60;;;13.20;99.90;;;;;;5097689;27;20234;-63
2022/05/23 03:40:35;;;;;;;4.70;2.00;;;13.20;99.90;;;;;;5111219;27;20247;-64
2022/05/23 03:43:04;;;;;;;3.57;1.97;;;13.20;99.90;;;;;;5108075;27;20322;-64
2022/05/23 03:45:33;;;;;;;3.03;1.63;;;13.20;99.90;;;;;;5094781;27;20241;-64
2022/05/23 03:48:07;;;;;;;4.10;1.80;;;13.20;99.90;;;;;;5093926;27;20232;-63
2022/05/23 03:50:37;;;;;;;3.03;1.77;;;13.30;99.90;;;;;;5108614;27;21426;-63
2022/05/23 03:53:08;;;;;;;2.60;1.83;;;13.20;99.90;;;;;;5096368;27;20688;-64
2022/05/23 03:55:42;;;;;;;2.20;1.50;;;13.30;99.90;;;;;;5095712;27;20241;-64
2022/05/23 03:58:16;;;;;;;4.07;2.00;;;13.40;99.90;;;;;;5095072;27;20623;-64
2022/05/23 04:01:06;;;;;;;3.30;1.57;;;13.30;99.90;;;;;;5106567;27;20236;-64
2022/05/23 04:03:36;;;;;;;4.97;2.10;;;13.40;99.90;;;;;;5096723;27;20328;-64
2022/05/23 04:06:05;;;;;;;3.63;1.80;;;13.40;99.90;;;;;;5113814;27;20245;-64
2022/05/23 04:08:37;;;;;;;3.80;1.93;;;13.20;99.90;;;;;;5117332;27;20241;-63
2022/05/23 04:11:11;;;;;;;5.60;1.83;;;13.20;99.90;;;;;;5094524;27;20727;-64
2022/05/23 04:13:39;;;;;;;4.67;1.83;;;13.20;99.90;;;;;;5094944;27;20263;-64
2022/05/23 04:16:08;;;;;;;5.60;1.90;;;13.20;99.90;;;;;;5111825;27;20588;-63
2022/05/23 04:18:38;;;;;;;5.43;2.07;;;13.20;99.90;;;;;;5119046;27;20233;-64
2022/05/23 04:21:06;;;;;;;4.07;2.00;;;13.30;99.90;;;;;;5096465;27;20240;-64
2022/05/23 04:23:36;;;;;;;5.33;2.03;;;13.30;99.90;;;;;;5094091;28;21296;-64
2022/05/23 04:26:08;;;;;;;5.17;1.83;;;13.40;99.90;;;;;;5098290;27;20237;-64
2022/05/23 04:28:40;;;;;;;4.40;1.60;;;13.40;99.90;;;;;;5110648;27;20368;-63
2022/05/23 04:31:11;;;;;;;5.17;1.93;;;13.60;99.90;;;;;;5111906;27;20237;-62
2022/05/23 04:37:20;;;;;;;6.50;2.00;;;14.00;99.90;;;;;;5034246;28;20234;-64
2022/05/23 04:39:50;;;;;;;3.93;2.10;;;13.90;99.90;;;;;;5021556;28;20282;-63
2022/05/23 04:42:18;;;;;;;3.80;2.10;;;14.00;99.90;;;;;;5055021;27;20253;-63
2022/05/23 04:44:47;;;;;;;4.17;2.03;;;14.10;99.90;;;;;;5094842;27;20230;-64
2022/05/23 04:50:12;;;;;;;5.47;1.77;;;14.20;99.90;;;;;;5114483;27;20328;-64
2022/05/23 04:52:44;;;;;;;6.77;1.93;;;14.10;99.90;;;;;;5094987;27;20777;-63
2022/05/23 04:55:15;;;;;;;6.43;2.20;;;14.10;99.90;;;;;;5093011;27;20734;-64
2022/05/23 04:57:44;;;;;;;3.10;1.70;;;14.10;99.90;;;;;;5110671;27;20237;-64
2022/05/23 05:00:18;;;;;;;4.53;1.60;;;14.20;99.90;;;;;;5093829;27;20234;-64
2022/05/23 05:02:59;;;;;;;5.90;1.67;;;14.10;99.90;;;;;;5093104;27;20227;-64
2022/05/23 05:05:41;;;;;;;6.20;1.70;;;14.10;99.90;;;;;;5091641;28;20649;-63
2022/05/23 05:08:10;;;;;;;4.50;1.73;;;14.10;99.90;;;;;;5093620;27;20243;-63
2022/05/23 05:10:41;;;;;;;4.07;1.80;;;14.20;99.90;;;;;;5096374;27;20241;-64
2022/05/23 05:13:10;;;;;;;6.40;1.60;;;14.40;99.90;;;;;;5096787;27;20291;-64
2022/05/23 05:15:38;;;;;;;3.43;1.60;;;14.60;99.90;;;;;;5095816;28;20249;-64
2022/05/23 05:18:14;;;;;;;4.87;1.90;;;14.60;99.90;;;;;;5107853;27;20252;-63
2022/05/23 05:20:50;;;;;;;3.73;1.53;;;14.60;99.90;;;;;;5092249;28;20233;-64
2022/05/23 05:23:38;;;;;;;5.13;1.60;;;14.70;99.90;;;;;;5106725;27;20294;-64
2022/05/23 05:26:24;;;;;;;2.23;1.40;;;14.80;99.90;;;;;;5091271;28;20304;-64
2022/05/23 05:28:53;;;;;;;6.57;1.60;;;15.10;99.90;;;;;;5113117;27;20272;-64
2022/05/23 05:31:26;;;;;;;2.70;1.60;;;15.30;99.90;;;;;;5115079;27;20591;-64
2022/05/23 05:34:02;;;;;;;3.20;1.70;;;15.50;99.90;;;;;;5094204;28;20705;-64
2022/05/23 05:36:37;;;;;;;3.77;1.60;;;15.50;99.90;;;;;;5091456;28;20291;-64
2022/05/23 05:39:08;;;;;;;2.43;1.40;;;15.50;99.90;;;;;;5110370;28;20237;-64
2022/05/23 05:41:43;;;;;;;3.10;1.80;;;15.70;99.90;;;;;;5092729;28;20229;-64
2022/05/23 05:44:17;;;;;;;5.57;1.80;;;16.00;99.90;;;;;;5092409;28;20582;-64
2022/05/23 05:46:49;;;;;;;5.13;1.80;;;16.20;99.90;;;;;;5085112;28;20282;-64
2022/05/23 05:49:42;;;;;;;2.97;1.53;;;16.30;99.90;;;;;;5092601;28;20678;-64
2022/05/23 05:52:16;;;;;;;2.57;1.53;;;16.40;99.90;;;;;;5094778;28;20250;-64
2022/05/23 05:54:59;;;;;;;2.67;1.53;;;16.40;99.90;;;;;;5097310;28;20233;-64
2022/05/23 05:57:28;;;;;;;3.03;1.80;;;16.50;99.90;;;;;;5110662;28;20245;-64
2022/05/23 06:00:04;;;;;;;3.50;1.60;;;16.60;99.90;;;;;;5092602;28;20259;-65
2022/05/23 06:02:33;;;;;;;5.30;1.87;;;16.80;99.90;;;;;;5111342;28;20272;-64
2022/05/23 06:05:03;;;;;;;3.43;1.50;;;16.90;99.90;;;;;;5115494;28;20245;-64
2022/05/23 06:13:30;;;;;;;3.20;1.90;;;17.00;99.90;;;;;;5087458;28;20233;-64
2022/05/23 06:16:06;;;;;;;5.20;1.83;;;17.20;99.90;;;;;;5092241;28;20246;-64
2022/05/23 06:18:42;;;;;;;2.77;1.50;;;17.20;99.90;;;;;;5092557;28;20233;-64
2022/05/23 06:21:12;;;;;;;5.17;2.00;;;17.30;99.90;;;;;;5091837;28;20580;-65
2022/05/23 06:23:42;;;;;;;2.40;1.50;;;17.40;99.90;;;;;;5091811;28;20317;-65
2022/05/23 06:26:27;;;;;;;3.03;1.70;;;17.50;99.90;;;;;;5093920;28;20350;-65
2022/05/23 06:29:13;;;;;;;3.10;1.57;;;17.60;99.90;;;;;;5109410;28;20260;-64
2022/05/23 06:31:46;;;;;;;4.60;1.43;;;17.80;99.90;;;;;;5086133;28;20321;-64
2022/05/23 06:34:16;;;;;;;4.07;1.40;;;18.20;99.90;;;;;;5095610;28;20226;-65
2022/05/23 06:36:48;;;;;;;2.57;1.50;;;18.30;99.90;;;;;;5092325;28;20291;-65
2022/05/23 06:39:17;;;;;;;3.30;1.57;;;18.20;99.90;;;;;;5092888;28;20223;-65
2022/05/23 06:42:05;;;;;;;4.53;1.60;;;18.20;99.90;;;;;;5110217;28;20307;-65
2022/05/23 06:44:53;;;;;;;3.20;1.57;;;18.50;99.90;;;;;;5082522;28;20279;-65
2022/05/23 06:47:59;;;;;;;2.83;1.50;;;18.80;99.90;;;;;;5011952;28;20241;-65
2022/05/23 06:50:53;;;;;;;3.33;1.40;;;18.90;99.90;;;;;;4989622;28;20265;-65
2022/05/23 06:53:33;;;;;;;3.93;1.20;;;19.00;99.90;;;;;;5067432;28;20237;-65
2022/05/23 06:56:24;;;;;;;6.90;1.77;;;19.00;99.90;;;;;;5113544;28;20262;-65
2022/05/23 06:58:58;;;;;;;2.60;1.10;;;19.10;99.90;;;;;;5095886;28;20632;-65
2022/05/23 07:01:32;;;;;;;2.80;1.50;;;19.30;99.90;;;;;;5094438;28;20250;-65
2022/05/23 07:04:19;;;;;;;3.10;1.50;;;19.00;99.90;;;;;;5099128;28;20233;-65
2022/05/23 07:12:39;;;;;;;2.87;1.20;;;19.10;99.90;;;;;;5095260;27;20256;-65
2022/05/23 07:15:09;;;;;;;3.13;1.30;;;19.40;99.90;;;;;;5103738;28;20629;-65
2022/05/23 07:17:40;;;;;;;2.97;1.20;;;19.70;99.90;;;;;;5095980;28;20236;-65
2022/05/23 07:20:23;;;;;;;1.97;1.10;;;20.20;99.90;;;;;;5095517;28;20649;-65
2022/05/23 07:23:13;;;;;;;5.50;1.57;;;20.10;99.90;;;;;;5097858;27;20236;-65
2022/05/23 07:25:46;;;;;;;3.67;1.23;;;20.30;99.90;;;;;;5101152;28;20294;-65
2022/05/23 07:28:30;;;;;;;2.97;1.40;;;20.40;99.90;;;;;;5099333;28;20896;-65
2022/05/23 07:31:00;;;;;;;2.10;1.17;;;20.60;99.90;;;;;;5095239;28;20286;-65
2022/05/23 07:33:29;;;;;;;3.87;1.40;;;20.60;99.90;;;;;;5098816;28;20307;-65
2022/05/23 07:36:00;;;;;;;3.17;1.47;;;20.50;99.90;;;;;;5095225;28;20316;-65
2022/05/23 07:38:30;;;;;;;3.77;1.40;;;20.70;99.90;;;;;;5095172;28;20244;-65
2022/05/23 07:41:03;;;;;;;6.40;1.40;;;21.00;99.90;;;;;;5095164;28;20244;-67
2022/05/23 07:43:41;;;;;;;2.90;1.13;;;21.20;99.90;;;;;;5100107;27;20680;-64
2022/05/23 07:46:13;;;;;;;5.83;1.37;;;21.10;99.90;;;;;;5095129;28;20229;-64
2022/05/23 07:48:51;;;;;;;4.20;1.57;;;21.10;99.90;;;;;;5094802;27;20597;-64
2022/05/23 07:51:23;;;;;;;2.43;1.10;;;21.10;99.90;;;;;;5097062;28;20328;-64
2022/05/23 08:02:43;;;;;;;3.20;1.40;;;22.00;99.90;;;;;;5103921;27;20229;-64
2022/05/23 08:05:21;;;;;;;2.83;1.40;;;22.00;99.90;;;;;;5094426;27;20275;-64
2022/05/23 08:07:52;;;;;;;5.83;1.47;;;22.40;99.90;;;;;;5095507;27;20233;-64
2022/05/23 08:10:23;;;;;;;4.17;1.20;;;22.40;99.90;;;;;;5097601;27;20320;-64
2022/05/23 08:12:55;;;;;;;3.10;1.30;;;22.20;99.90;;;;;;5090575;27;20230;-64
2022/05/23 08:15:26;;;;;;;3.90;1.50;;;22.10;99.90;;;;;;5111635;27;21076;-64
2022/05/23 08:18:01;;;;;;;2.17;1.20;;;22.40;99.90;;;;;;5096059;27;20253;-64
2022/05/23 08:20:40;;;;;;;4.47;1.43;;;22.50;99.90;;;;;;5096534;27;20217;-64
2022/05/23 08:23:08;;;;;;;2.57;1.20;;;22.80;99.90;;;;;;5105737;27;20241;-64
2022/05/23 08:26:02;;;;;;;2.67;1.30;;;23.50;99.90;;;;;;5098414;27;20229;-64
2022/05/23 08:28:35;;;;;;;3.07;1.23;;;23.90;99.90;;;;;;5095584;28;20593;-64
2022/05/23 08:31:04;;;;;;;3.13;1.23;;;23.30;99.90;;;;;;5096799;27;20229;-64
2022/05/23 08:33:39;;;;;;;4.27;1.37;;;22.90;99.90;;;;;;5094111;27;20289;-65
2022/05/23 08:36:24;;;;;;;2.40;1.27;;;22.90;99.90;;;;;;5095858;27;20319;-64
2022/05/23 08:38:52;;;;;;;3.07;1.60;;;22.90;99.90;;;;;;5094672;27;20222;-64
2022/05/23 08:41:33;;;;;;;3.43;1.50;;;22.90;99.90;;;;;;5090137;27;20317;-64
2022/05/23 08:44:18;;;;;;;3.07;1.40;;;23.10;99.90;;;;;;5090585;27;20336;-64
2022/05/23 08:47:02;;;;;;;4.03;1.27;;;23.70;99.90;;;;;;5096210;27;20229;-65
2022/05/23 08:49:45;;;;;;;3.23;1.50;;;24.30;99.90;;;;;;5095797;27;20261;-65
2022/05/23 08:52:22;;;;;;;4.00;1.70;;;24.10;99.90;;;;;;5115096;27;20234;-65
2022/05/23 08:54:57;;;;;;;3.53;1.83;;;24.10;99.90;;;;;;5094798;27;20225;-64
2022/05/23 08:58:10;;;;;;;1.73;1.13;;;23.60;99.90;;;;;;5011803;28;20248;-65
2022/05/23 09:00:43;;;;;;;2.90;1.40;;;24.10;99.90;;;;;;5009807;28;20240;-66
2022/05/23 09:03:18;;;;;;;4.40;1.27;;;24.00;99.90;;;;;;5046366;28;20234;-67
2022/05/23 09:05:52;;;;;;;3.17;1.70;;;24.60;99.90;;;;;;5096711;27;20234;-67
2022/05/23 09:08:43;;;;;;;2.63;1.50;;;24.90;99.90;;;;;;5105485;27;20245;-67
2022/05/23 09:11:24;;;;;;;4.93;1.90;;;24.40;99.90;;;;;;5104010;27;20682;-67
2022/05/23 09:13:53;;;;;;;3.63;1.60;;;24.60;99.90;;;;;;5104761;27;20226;-67
2022/05/23 09:16:25;;;;;;;4.20;1.50;;;24.80;99.90;;;;;;5108008;27;20243;-66
2022/05/23 09:18:59;;;;;;;7.73;1.87;;;24.60;99.90;;;;;;5113234;27;20240;-67
2022/05/23 09:22:12;;;;;;;3.03;1.60;;;24.40;99.90;;;;;;5106183;27;20250;-66
2022/05/23 09:24:18;;;;;;;3.00;1.50;;;24.20;99.90;;;;;;5110739;27;20248;-67
2022/05/23 09:26:47;;;;;;;4.10;1.60;;;24.40;99.90;;;;;;5113850;27;20249;-67
2022/05/23 09:29:15;;;;;;;5.37;2.00;;;24.80;99.90;;;;;;5111811;27;20265;-64
2022/05/23 09:31:51;;;;;;;4.27;1.70;;;24.90;99.90;;;;;;5107606;27;20232;-67
2022/05/23 09:34:44;;;;;;;1.93;1.40;;;25.20;99.90;;;;;;5108805;27;20598;-67
2022/05/23 09:37:19;;;;;;;3.53;1.70;;;25.50;99.70;;;;;;5111645;27;20240;-66
2022/05/23 09:39:53;;;;;;;3.60;1.70;;;25.40;99.90;;;;;;5110836;27;20793;-67
2022/05/23 09:48:15;;;;;;;5.70;1.80;;;25.40;99.90;;;;;;5112619;27;20238;-67
2022/05/23 09:50:45;;;;;;;3.37;1.60;;;25.60;99.90;;;;;;5109969;27;20228;-67
2022/05/23 09:53:26;;;;;;;3.90;2.10;;;25.90;99.70;;;;;;5108176;27;20254;-67
2022/05/23 09:56:22;;;;;;;2.60;1.80;;;25.70;99.60;;;;;;5110527;27;20578;-67
2022/05/23 09:58:52;;;;;;;4.33;2.37;;;25.50;99.80;;;;;;5110254;27;20281;-66
2022/05/23 10:01:26;;;;;;;3.37;1.70;;;25.40;99.30;;;;;;5107867;27;20262;-66
2022/05/23 10:03:56;;;;;;;3.70;1.80;;;25.40;99.90;;;;;;5110000;28;20322;-67
2022/05/23 10:06:35;;;;;;;4.30;1.90;;;25.70;99.70;;;;;;5105747;28;20237;-67
2022/05/23 10:09:06;;;;;;;3.93;1.93;;;25.90;99.40;;;;;;5106169;28;20230;-67
2022/05/23 10:11:54;;;;;;;5.60;2.20;;;26.10;99.20;;;;;;5091280;28;20299;-67
2022/05/23 10:14:25;;;;;;;4.63;2.10;;;25.90;98.80;;;;;;5105690;28;20244;-66
2022/05/23 10:16:56;;;;;;;5.00;1.53;;;26.00;98.80;;;;;;5106922;28;20251;-66
2022/05/23 10:19:31;;;;;;;5.60;2.00;;;26.40;97.90;;;;;;5104036;28;20249;-66
2022/05/23 10:22:15;;;;;;;3.80;2.00;;;26.80;98.30;;;;;;5104223;28;20322;-66
2022/05/23 10:24:54;;;;;;;5.33;1.90;;;26.70;97.00;;;;;;5103879;28;20307;-67
2022/05/23 10:27:35;;;;;;;4.63;1.97;;;26.30;97.80;;;;;;5108632;27;20239;-66
2022/05/23 10:30:06;;;;;;;3.43;2.00;;;26.30;97.60;;;;;;5111515;27;20311;-68
2022/05/23 10:32:41;;;;;;;4.20;2.00;;;26.50;97.80;;;;;;5108200;27;20252;-66
2022/05/23 10:35:18;;;;;;;4.77;2.10;;;26.60;97.50;;;;;;5111830;27;20715;-67
2022/05/23 10:37:47;;;;;;;5.17;2.00;;;26.50;97.60;;;;;;5110166;27;20324;-66
2022/05/23 10:43:17;;;;;;;4.30;1.80;;;26.00;97.80;;;;;;5074350;27;20241;-66
2022/05/23 10:45:48;;;;;;;4.10;1.80;;;26.20;97.20;;;;;;5112291;27;20635;-65
2022/05/23 10:48:48;;;;;;;5.07;2.00;;;26.20;96.50;;;;;;5109572;27;20229;-66
2022/05/23 10:51:29;;;;;;;4.67;1.60;;;26.20;96.40;;;;;;5090738;27;20241;-66
2022/05/23 10:54:07;;;;;;;3.70;1.90;;;25.60;96.80;;;;;;5109273;27;20291;-66
2022/05/23 10:56:57;;;;;;;4.07;1.70;;;25.90;97.40;;;;;;5109545;27;21224;-68
2022/05/23 10:59:35;;;;;;;3.87;2.00;;;26.50;97.00;;;;;;5109535;27;20263;-67
2022/05/23 11:02:19;;;;;;;5.33;2.33;;;26.80;96.10;;;;;;5107096;27;20311;-67
2022/05/23 11:04:57;;;;;;;4.37;1.80;;;26.90;96.00;;;;;;5107692;27;20328;-66
2022/05/23 11:07:45;;;;;;;3.33;1.73;;;27.10;96.00;;;;;;5109821;27;20306;-66
2022/05/23 11:10:27;;;;;;;6.90;1.83;;;27.40;95.60;;;;;;5111866;27;20603;-65
2022/05/23 11:13:22;;;;;;;4.00;1.77;;;27.40;95.10;;;;;;5109421;27;20768;-66
2022/05/23 11:16:01;;;;;;;3.70;1.80;;;26.90;95.70;;;;;;5109697;27;20715;-66
2022/05/23 11:18:39;;;;;;;5.00;2.20;;;27.00;94.90;;;;;;5111188;27;20625;-67
2022/05/23 11:21:12;;;;;;;3.00;1.77;;;26.90;95.10;;;;;;5113934;27;20271;-67
2022/05/23 11:23:58;;;;;;;5.40;1.90;;;27.10;94.50;;;;;;5101470;27;20240;-66
2022/05/23 11:26:30;;;;;;;3.63;2.03;;;26.80;94.40;;;;;;5113142;28;20232;-67
2022/05/23 11:34:52;;;;;;;5.50;1.90;;;26.70;95.10;;;;;;5110623;27;20767;-67
2022/05/23 11:40:14;;;;;;;5.07;2.30;;;26.80;94.90;;;;;;5111357;28;20696;-67
2022/05/23 11:42:56;;;;;;;3.57;1.93;;;26.40;94.10;;;;;;5108109;27;20259;-67
2022/05/23 11:48:48;;;;;;;4.33;1.97;;;26.30;95.20;;;;;;5114228;27;20244;-67
2022/05/23 11:51:26;;;;;;;4.60;2.00;;;26.40;95.60;;;;;;5110313;28;20712;-67
2022/05/23 11:54:06;;;;;;;4.40;1.90;;;26.60;95.40;;;;;;5116965;27;20644;-66
2022/05/23 11:56:41;;;;;;;5.27;2.17;;;26.50;95.50;;;;;;5110929;28;20239;-67
2022/05/23 11:59:11;;;;;;;5.33;2.10;;;26.40;95.00;;;;;;5113195;28;20714;-67
2022/05/23 12:01:40;;;;;;;4.83;2.30;;;26.10;95.60;;;;;;5114918;27;20321;-67
2022/05/23 12:04:18;;;;;;;4.90;2.00;;;26.10;95.70;;;;;;5118582;27;20612;-67
2022/05/23 12:06:49;;;;;;;7.20;2.30;;;25.90;95.80;;;;;;5106031;27;20229;-66
2022/05/23 12:09:30;;;;;;;4.30;2.00;;;25.70;95.80;;;;;;5113220;28;20286;-67
2022/05/23 12:12:47;;;;;;;7.53;2.30;;;25.70;95.50;;;;;;5112769;28;20252;-67
2022/05/23 12:15:48;;;;;;;2.77;1.90;;;25.70;95.80;;;;;;5118444;27;20238;-67
2022/05/23 12:18:47;;;;;;;3.67;2.30;;;25.70;96.80;;;;;;5112116;28;20654;-67
2022/05/23 12:21:42;;;;;;;5.17;2.20;;;25.80;96.50;;;;;;5114603;27;20248;-67
2022/05/23 12:24:14;;;;;;;6.23;2.20;;;25.70;96.80;;;;;;5109885;27;20232;-67
2022/05/23 12:27:07;;;;;;;4.47;2.43;;;25.50;96.60;;;;;;5112817;27;20236;-67
2022/05/23 12:29:37;;;;;;;4.60;2.07;;;25.40;96.60;;;;;;5111898;28;20277;-67
2022/05/23 12:32:26;;;;;;;4.40;2.00;;;25.20;96.40;;;;;;5111690;27;20248;-67
2022/05/23 12:34:59;;;;;;;5.77;2.20;;;25.30;95.40;;;;;;5110684;27;20600;-67
2022/05/23 12:37:33;;;;;;;3.40;1.93;;;25.40;96.20;;;;;;5112079;28;20739;-68
2022/05/23 12:40:14;;;;;;;5.77;2.17;;;25.50;95.90;;;;;;5112439;28;20248;-68
2022/05/23 12:43:05;;;;;;;5.33;2.00;;;25.20;96.00;;;;;;5111046;28;20243;-67
2022/05/23 12:45:58;;;;;;;6.37;1.80;;;25.10;96.00;;;;;;5111245;28;20236;-68
2022/05/23 12:48:58;;;;;;;4.27;1.90;;;25.00;95.70;;;;;;5110633;27;20628;-68
2022/05/23 12:51:39;;;;;;;4.83;2.10;;;25.00;96.50;;;;;;5111077;27;20238;-68
2022/05/23 12:54:39;;;;;;;3.23;2.00;;;25.10;96.40;;;;;;5110493;27;20244;-68
2022/05/23 12:57:36;;;;;;;5.20;2.07;;;25.10;96.80;;;;;;5104177;28;20707;-68
2022/05/23 13:00:13;;;;;;;4.13;2.20;;;25.20;96.40;;;;;;5107892;27;20962;-63
2022/05/23 13:02:45;;;;;;;5.70;1.98;;;25.20;96.30;;;;;;5104195;27;20438;-65
2022/05/23 13:05:21;;;;;;;4.23;1.77;;;25.10;96.20;;;;;;5109235;27;20248;-64
2022/05/23 13:07:56;;;;;;;6.03;2.03;;;25.10;96.50;;;;;;5107752;27;20262;-64
2022/05/23 13:10:29;;;;;;;2.93;1.80;;;25.10;97.00;;;;;;5106325;27;20263;-66
2022/05/23 13:13:04;;;;;;;4.13;2.20;;;25.10;96.10;;;;;;5094604;28;20937;-65
2022/05/23 13:15:39;;;;;;;4.87;1.93;;;25.10;96.10;;;;;;5107361;27;20703;-65
2022/05/23 13:23:57;;;;;;;5.37;1.80;;;25.00;95.60;;;;;;5104918;27;20366;-65
2022/05/23 13:26:29;;;;;;;3.50;2.00;;;25.10;96.10;;;;;;5105449;27;20230;-66
2022/05/23 13:29:13;;;;;;;2.97;2.00;;;25.20;95.80;;;;;;5106592;27;20735;-65
2022/05/23 13:31:44;;;;;;;4.67;2.20;;;25.40;95.50;;;;;;5105821;27;20237;-65
2022/05/23 13:34:13;;;;;;;3.60;1.73;;;25.10;95.30;;;;;;5103918;27;20244;-65
2022/05/23 13:36:44;;;;;;;3.50;2.40;;;25.00;96.10;;;;;;5108803;27;20302;-65
2022/05/23 13:39:21;;;;;;;5.03;2.20;;;25.10;96.20;;;;;;5111463;27;20211;-66
2022/05/23 13:41:49;;;;;;;4.63;1.93;;;24.90;96.10;;;;;;5112587;27;20223;-65
2022/05/23 13:44:22;;;;;;;7.47;2.20;;;24.60;96.50;;;;;;5109064;27;20235;-65
2022/05/23 13:46:55;;;;;;;5.30;2.10;;;24.50;96.60;;;;;;5109209;27;20671;-65
2022/05/23 13:49:29;;;;;;;4.40;1.97;;;24.50;96.80;;;;;;5108956;27;20626;-64
2022/05/23 13:52:03;;;;;;;4.03;1.90;;;24.60;96.80;;;;;;5109712;27;20237;-65
2022/05/23 13:54:35;;;;;;;3.10;1.80;;;24.50;96.90;;;;;;5106414;27;20235;-65
2022/05/23 13:57:11;;;;;;;5.33;2.40;;;24.80;97.40;;;;;;5108298;27;20303;-65
2022/05/23 13:59:44;;;;;;;5.90;2.20;;;24.80;96.60;;;;;;5106938;28;20617;-65
2022/05/23 14:02:18;;;;;;;5.20;2.07;;;24.50;96.50;;;;;;5107367;27;20275;-65
2022/05/23 14:04:48;;;;;;;5.43;2.00;;;24.60;97.50;;;;;;5109340;27;20789;-64
2022/05/23 14:07:21;;;;;;;6.23;2.30;;;24.70;96.90;;;;;;5106331;28;20246;-65
2022/05/23 14:09:51;;;;;;;2.90;1.70;;;24.60;97.20;;;;;;5107787;28;20242;-65
2022/05/23 14:12:23;;;;;;;2.47;2.00;;;24.70;97.10;;;;;;5106838;28;20246;-64
2022/05/23 14:14:57;;;;;;;8.43;2.30;;;24.60;97.40;;;;;;5107937;28;20259;-65
2022/05/23 14:17:31;;;;;;;4.37;2.10;;;24.60;97.10;;;;;;5107171;28;20664;-64
2022/05/23 14:20:21;;;;;;;5.67;2.00;;;24.30;96.90;;;;;;5106430;28;20714;-64
2022/05/23 14:23:03;;;;;;;8.30;2.30;;;24.40;97.10;;;;;;5107100;28;20245;-67
2022/05/23 14:25:34;;;;;;;6.23;2.53;;;24.30;97.30;;;;;;5106837;28;20238;-66
2022/05/23 14:28:10;;;;;;;5.60;2.10;;;24.20;97.90;;;;;;5107572;28;20799;-67
2022/05/23 14:30:40;;;;;;;5.07;2.23;;;24.40;98.10;;;;;;5106918;28;20329;-65
2022/05/23 14:33:19;;;;;;;3.07;1.97;;;24.40;97.70;;;;;;5102714;28;20240;-65
2022/05/23 14:35:53;;;;;;;4.47;2.10;;;24.40;97.40;;;;;;5108530;28;20250;-65
2022/05/23 14:38:27;;;;;;;3.03;1.70;;;24.20;98.00;;;;;;5108833;28;20703;-65